sensor_id;sensor_type;location;lat;lon;timestamp;P1;durP1;ratioP1;P2;durP2;ratioP2
29662;SDS011;16578;53.266;7.920;2023-03-14T00:02:09;19.08;;;5.15;;
29662;SDS011;16578;53.266;7.920;2023-03-14T00:04:35;18.58;;;4.68;;
29662;SDS011;16578;53.266;7.920;2023-03-14T00:07:01;20.63;;;4.85;;
29662;SDS011;16578;53.266;7.920;2023-03-14T00:09:26;20.42;;;4.70;;
29662;SDS011;16578;53.266;7.920;2023-03-14T00:11:52;22.92;;;5.95;;
29662;SDS011;16578;53.266;7.920;2023-03-14T00:14:18;20.25;;;5.63;;
29662;SDS011;16578;53.266;7.920;2023-03-14T00:16:47;21.50;;;5.75;;
29662;SDS011;16578;53.266;7.920;2023-03-14T00:19:12;17.40;;;5.18;;
29662;SDS011;16578;53.266;7.920;2023-03-14T00:21:38;17.92;;;5.45;;
29662;SDS011;16578;53.266;7.920;2023-03-14T00:24:03;21.83;;;6.45;;
29662;SDS011;16578;53.266;7.920;2023-03-14T00:26:29;16.48;;;4.85;;
29662;SDS011;16578;53.266;7.920;2023-03-14T00:28:55;16.25;;;4.47;;
29662;SDS011;16578;53.266;7.920;2023-03-14T00:31:21;16.98;;;4.90;;
29662;SDS011;16578;53.266;7.920;2023-03-14T00:33:46;16.35;;;4.07;;
29662;SDS011;16578;53.266;7.920;2023-03-14T00:36:13;16.38;;;4.15;;
29662;SDS011;16578;53.266;7.920;2023-03-14T00:38:41;17.08;;;5.05;;
29662;SDS011;16578;53.266;7.920;2023-03-14T00:41:08;17.20;;;4.85;;
29662;SDS011;16578;53.266;7.920;2023-03-14T00:43:36;17.98;;;5.25;;
29662;SDS011;16578;53.266;7.920;2023-03-14T00:46:02;20.50;;;4.82;;
29662;SDS011;16578;53.266;7.920;2023-03-14T00:48:28;14.55;;;3.97;;
29662;SDS011;16578;53.266;7.920;2023-03-14T00:50:54;14.18;;;3.85;;
29662;SDS011;16578;53.266;7.920;2023-03-14T00:53:19;18.20;;;4.63;;
29662;SDS011;16578;53.266;7.920;2023-03-14T00:55:45;15.30;;;4.43;;
29662;SDS011;16578;53.266;7.920;2023-03-14T00:58:11;17.38;;;4.40;;
29662;SDS011;16578;53.266;7.920;2023-03-14T01:00:38;20.50;;;4.75;;
29662;SDS011;16578;53.266;7.920;2023-03-14T01:03:04;18.95;;;5.80;;
29662;SDS011;16578;53.266;7.920;2023-03-14T01:05:30;17.90;;;4.95;;
29662;SDS011;16578;53.266;7.920;2023-03-14T01:07:55;16.80;;;6.22;;
29662;SDS011;16578;53.266;7.920;2023-03-14T01:10:21;18.13;;;4.75;;
29662;SDS011;16578;53.266;7.920;2023-03-14T01:12:47;15.48;;;4.53;;
29662;SDS011;16578;53.266;7.920;2023-03-14T01:15:13;24.50;;;4.80;;
29662;SDS011;16578;53.266;7.920;2023-03-14T01:17:39;18.60;;;5.03;;
29662;SDS011;16578;53.266;7.920;2023-03-14T01:20:05;18.42;;;4.57;;
29662;SDS011;16578;53.266;7.920;2023-03-14T01:22:34;12.45;;;4.00;;
29662;SDS011;16578;53.266;7.920;2023-03-14T01:25:05;12.15;;;5.28;;
29662;SDS011;16578;53.266;7.920;2023-03-14T01:27:32;12.27;;;4.13;;
29662;SDS011;16578;53.266;7.920;2023-03-14T01:29:58;15.05;;;4.80;;
29662;SDS011;16578;53.266;7.920;2023-03-14T01:32:24;15.02;;;5.43;;
29662;SDS011;16578;53.266;7.920;2023-03-14T01:34:50;11.13;;;4.05;;
29662;SDS011;16578;53.266;7.920;2023-03-14T01:37:16;11.18;;;4.43;;
29662;SDS011;16578;53.266;7.920;2023-03-14T01:39:41;11.07;;;3.85;;
29662;SDS011;16578;53.266;7.920;2023-03-14T01:42:07;10.48;;;3.40;;
29662;SDS011;16578;53.266;7.920;2023-03-14T01:47:24;10.80;;;3.20;;
29662;SDS011;16578;53.266;7.920;2023-03-14T01:50:04;12.43;;;3.95;;
29662;SDS011;16578;53.266;7.920;2023-03-14T01:52:34;11.50;;;3.83;;
29662;SDS011;16578;53.266;7.920;2023-03-14T01:55:07;6.50;;;3.08;;
29662;SDS011;16578;53.266;7.920;2023-03-14T01:57:37;7.93;;;3.33;;
29662;SDS011;16578;53.266;7.920;2023-03-14T02:00:11;8.50;;;4.07;;
29662;SDS011;16578;53.266;7.920;2023-03-14T02:02:49;8.82;;;3.13;;
29662;SDS011;16578;53.266;7.920;2023-03-14T02:07:50;8.52;;;3.25;;
29662;SDS011;16578;53.266;7.920;2023-03-14T02:10:22;6.82;;;3.30;;
29662;SDS011;16578;53.266;7.920;2023-03-14T02:12:51;10.27;;;3.28;;
29662;SDS011;16578;53.266;7.920;2023-03-14T02:15:20;9.73;;;3.75;;
29662;SDS011;16578;53.266;7.920;2023-03-14T02:17:45;10.30;;;3.53;;
29662;SDS011;16578;53.266;7.920;2023-03-14T02:23:27;4.28;;;2.00;;
29662;SDS011;16578;53.266;7.920;2023-03-14T02:26:01;5.13;;;2.65;;
29662;SDS011;16578;53.266;7.920;2023-03-14T02:28:33;4.40;;;1.50;;
29662;SDS011;16578;53.266;7.920;2023-03-14T02:30:59;4.20;;;1.58;;
29662;SDS011;16578;53.266;7.920;2023-03-14T02:33:25;4.50;;;1.60;;
29662;SDS011;16578;53.266;7.920;2023-03-14T02:35:53;2.90;;;1.42;;
29662;SDS011;16578;53.266;7.920;2023-03-14T02:38:45;4.75;;;1.70;;
29662;SDS011;16578;53.266;7.920;2023-03-14T02:43:56;3.15;;;1.42;;
29662;SDS011;16578;53.266;7.920;2023-03-14T02:46:22;6.38;;;2.15;;
29662;SDS011;16578;53.266;7.920;2023-03-14T02:48:56;4.60;;;2.08;;
29662;SDS011;16578;53.266;7.920;2023-03-14T02:51:25;4.32;;;1.83;;
29662;SDS011;16578;53.266;7.920;2023-03-14T02:53:52;9.65;;;3.05;;
29662;SDS011;16578;53.266;7.920;2023-03-14T02:56:18;8.82;;;2.20;;
29662;SDS011;16578;53.266;7.920;2023-03-14T02:58:43;8.85;;;2.33;;
29662;SDS011;16578;53.266;7.920;2023-03-14T03:01:09;8.65;;;2.40;;
29662;SDS011;16578;53.266;7.920;2023-03-14T03:03:34;4.82;;;2.10;;
29662;SDS011;16578;53.266;7.920;2023-03-14T03:06:00;9.00;;;2.55;;
29662;SDS011;16578;53.266;7.920;2023-03-14T03:08:26;10.10;;;3.13;;
29662;SDS011;16578;53.266;7.920;2023-03-14T03:10:52;7.57;;;3.03;;
29662;SDS011;16578;53.266;7.920;2023-03-14T03:13:18;9.32;;;2.38;;
29662;SDS011;16578;53.266;7.920;2023-03-14T03:15:44;11.52;;;2.67;;
29662;SDS011;16578;53.266;7.920;2023-03-14T03:18:10;9.40;;;2.83;;
29662;SDS011;16578;53.266;7.920;2023-03-14T03:20:36;11.93;;;3.33;;
29662;SDS011;16578;53.266;7.920;2023-03-14T03:23:01;6.72;;;2.63;;
29662;SDS011;16578;53.266;7.920;2023-03-14T03:25:29;12.90;;;3.53;;
29662;SDS011;16578;53.266;7.920;2023-03-14T03:27:55;9.15;;;3.42;;
29662;SDS011;16578;53.266;7.920;2023-03-14T03:30:21;11.35;;;2.75;;
29662;SDS011;16578;53.266;7.920;2023-03-14T03:32:46;7.63;;;2.80;;
29662;SDS011;16578;53.266;7.920;2023-03-14T03:35:12;10.50;;;3.35;;
29662;SDS011;16578;53.266;7.920;2023-03-14T03:37:38;12.68;;;3.30;;
29662;SDS011;16578;53.266;7.920;2023-03-14T03:40:04;6.10;;;3.03;;
29662;SDS011;16578;53.266;7.920;2023-03-14T03:42:31;12.95;;;3.85;;
29662;SDS011;16578;53.266;7.920;2023-03-14T03:44:57;10.77;;;3.15;;
29662;SDS011;16578;53.266;7.920;2023-03-14T03:47:23;8.93;;;2.88;;
29662;SDS011;16578;53.266;7.920;2023-03-14T03:49:49;11.25;;;3.35;;
29662;SDS011;16578;53.266;7.920;2023-03-14T03:52:14;15.20;;;4.40;;
29662;SDS011;16578;53.266;7.920;2023-03-14T03:54:40;12.70;;;4.43;;
29662;SDS011;16578;53.266;7.920;2023-03-14T03:57:05;14.52;;;4.60;;
29662;SDS011;16578;53.266;7.920;2023-03-14T03:59:31;13.32;;;3.38;;
29662;SDS011;16578;53.266;7.920;2023-03-14T04:01:57;6.60;;;3.13;;
29662;SDS011;16578;53.266;7.920;2023-03-14T04:04:22;9.13;;;3.10;;
29662;SDS011;16578;53.266;7.920;2023-03-14T04:06:48;10.48;;;3.67;;
29662;SDS011;16578;53.266;7.920;2023-03-14T04:09:13;11.85;;;3.72;;
29662;SDS011;16578;53.266;7.920;2023-03-14T04:11:39;6.97;;;2.85;;
29662;SDS011;16578;53.266;7.920;2023-03-14T04:14:06;7.45;;;3.38;;
29662;SDS011;16578;53.266;7.920;2023-03-14T04:16:31;7.88;;;3.72;;
29662;SDS011;16578;53.266;7.920;2023-03-14T04:18:57;10.30;;;3.90;;
29662;SDS011;16578;53.266;7.920;2023-03-14T04:21:23;10.07;;;2.80;;
29662;SDS011;16578;53.266;7.920;2023-03-14T04:23:48;8.02;;;2.88;;
29662;SDS011;16578;53.266;7.920;2023-03-14T04:26:15;6.78;;;3.15;;
29662;SDS011;16578;53.266;7.920;2023-03-14T04:28:41;5.10;;;2.25;;
29662;SDS011;16578;53.266;7.920;2023-03-14T04:31:16;5.50;;;2.35;;
29662;SDS011;16578;53.266;7.920;2023-03-14T04:33:44;8.65;;;2.60;;
29662;SDS011;16578;53.266;7.920;2023-03-14T04:36:10;6.05;;;2.53;;
29662;SDS011;16578;53.266;7.920;2023-03-14T04:38:36;5.28;;;2.60;;
29662;SDS011;16578;53.266;7.920;2023-03-14T04:41:01;6.43;;;2.45;;
29662;SDS011;16578;53.266;7.920;2023-03-14T04:43:28;3.67;;;2.17;;
29662;SDS011;16578;53.266;7.920;2023-03-14T04:45:54;4.72;;;1.95;;
29662;SDS011;16578;53.266;7.920;2023-03-14T04:48:20;6.53;;;2.70;;
29662;SDS011;16578;53.266;7.920;2023-03-14T04:50:46;4.95;;;2.63;;
29662;SDS011;16578;53.266;7.920;2023-03-14T04:53:13;3.05;;;2.15;;
29662;SDS011;16578;53.266;7.920;2023-03-14T04:55:38;4.75;;;2.22;;
29662;SDS011;16578;53.266;7.920;2023-03-14T04:58:04;5.47;;;2.38;;
29662;SDS011;16578;53.266;7.920;2023-03-14T05:00:30;5.47;;;2.78;;
29662;SDS011;16578;53.266;7.920;2023-03-14T05:02:55;9.32;;;3.50;;
29662;SDS011;16578;53.266;7.920;2023-03-14T05:05:21;5.95;;;2.42;;
29662;SDS011;16578;53.266;7.920;2023-03-14T05:07:46;6.15;;;2.67;;
29662;SDS011;16578;53.266;7.920;2023-03-14T05:10:12;6.22;;;2.88;;
29662;SDS011;16578;53.266;7.920;2023-03-14T05:12:38;7.55;;;2.83;;
29662;SDS011;16578;53.266;7.920;2023-03-14T05:15:03;6.47;;;2.70;;
29662;SDS011;16578;53.266;7.920;2023-03-14T05:17:30;6.03;;;2.72;;
29662;SDS011;16578;53.266;7.920;2023-03-14T05:19:57;3.65;;;2.67;;
29662;SDS011;16578;53.266;7.920;2023-03-14T05:22:22;5.57;;;2.55;;
29662;SDS011;16578;53.266;7.920;2023-03-14T05:24:48;10.32;;;3.00;;
29662;SDS011;16578;53.266;7.920;2023-03-14T05:27:13;11.05;;;3.30;;
29662;SDS011;16578;53.266;7.920;2023-03-14T05:29:39;8.23;;;3.17;;
29662;SDS011;16578;53.266;7.920;2023-03-14T05:32:05;5.90;;;2.55;;
29662;SDS011;16578;53.266;7.920;2023-03-14T05:34:30;7.78;;;2.60;;
29662;SDS011;16578;53.266;7.920;2023-03-14T05:36:56;7.25;;;2.60;;
29662;SDS011;16578;53.266;7.920;2023-03-14T05:39:22;9.65;;;2.70;;
29662;SDS011;16578;53.266;7.920;2023-03-14T05:41:47;9.68;;;3.00;;
29662;SDS011;16578;53.266;7.920;2023-03-14T05:44:13;10.10;;;2.90;;
29662;SDS011;16578;53.266;7.920;2023-03-14T05:46:38;9.07;;;3.00;;
29662;SDS011;16578;53.266;7.920;2023-03-14T05:49:04;7.57;;;2.90;;
29662;SDS011;16578;53.266;7.920;2023-03-14T05:51:29;6.55;;;2.42;;
29662;SDS011;16578;53.266;7.920;2023-03-14T05:53:55;6.00;;;2.25;;
29662;SDS011;16578;53.266;7.920;2023-03-14T05:56:20;6.10;;;2.25;;
29662;SDS011;16578;53.266;7.920;2023-03-14T05:58:46;5.55;;;2.40;;
29662;SDS011;16578;53.266;7.920;2023-03-14T06:01:11;4.32;;;2.38;;
29662;SDS011;16578;53.266;7.920;2023-03-14T06:03:37;7.93;;;2.95;;
29662;SDS011;16578;53.266;7.920;2023-03-14T06:06:02;4.93;;;2.10;;
29662;SDS011;16578;53.266;7.920;2023-03-14T06:08:28;4.88;;;2.30;;
29662;SDS011;16578;53.266;7.920;2023-03-14T06:10:54;7.80;;;3.38;;
29662;SDS011;16578;53.266;7.920;2023-03-14T06:13:20;6.78;;;2.40;;
29662;SDS011;16578;53.266;7.920;2023-03-14T06:15:46;4.20;;;2.28;;
29662;SDS011;16578;53.266;7.920;2023-03-14T06:18:12;6.15;;;2.65;;
29662;SDS011;16578;53.266;7.920;2023-03-14T06:20:39;4.68;;;2.53;;
29662;SDS011;16578;53.266;7.920;2023-03-14T06:23:08;5.30;;;3.00;;
29662;SDS011;16578;53.266;7.920;2023-03-14T06:25:34;4.35;;;2.40;;
29662;SDS011;16578;53.266;7.920;2023-03-14T06:28:00;6.18;;;2.40;;
29662;SDS011;16578;53.266;7.920;2023-03-14T06:30:26;7.00;;;2.30;;
29662;SDS011;16578;53.266;7.920;2023-03-14T06:32:52;7.45;;;3.00;;
29662;SDS011;16578;53.266;7.920;2023-03-14T06:35:18;6.85;;;3.08;;
29662;SDS011;16578;53.266;7.920;2023-03-14T06:37:44;8.95;;;2.70;;
29662;SDS011;16578;53.266;7.920;2023-03-14T06:40:10;7.38;;;2.35;;
29662;SDS011;16578;53.266;7.920;2023-03-14T06:42:38;5.80;;;2.70;;
29662;SDS011;16578;53.266;7.920;2023-03-14T06:45:04;5.25;;;3.00;;
29662;SDS011;16578;53.266;7.920;2023-03-14T06:47:30;6.05;;;2.60;;
29662;SDS011;16578;53.266;7.920;2023-03-14T06:49:56;6.35;;;2.97;;
29662;SDS011;16578;53.266;7.920;2023-03-14T06:52:21;6.32;;;2.38;;
29662;SDS011;16578;53.266;7.920;2023-03-14T06:54:47;6.80;;;2.63;;
29662;SDS011;16578;53.266;7.920;2023-03-14T06:57:12;7.50;;;2.80;;
29662;SDS011;16578;53.266;7.920;2023-03-14T06:59:38;5.97;;;2.85;;
29662;SDS011;16578;53.266;7.920;2023-03-14T07:02:03;10.18;;;3.08;;
29662;SDS011;16578;53.266;7.920;2023-03-14T07:04:29;3.80;;;2.20;;
29662;SDS011;16578;53.266;7.920;2023-03-14T07:06:54;7.97;;;2.20;;
29662;SDS011;16578;53.266;7.920;2023-03-14T07:09:20;9.52;;;2.83;;
29662;SDS011;16578;53.266;7.920;2023-03-14T07:11:46;6.65;;;2.60;;
29662;SDS011;16578;53.266;7.920;2023-03-14T07:14:11;7.43;;;2.83;;
29662;SDS011;16578;53.266;7.920;2023-03-14T07:16:37;7.95;;;2.90;;
29662;SDS011;16578;53.266;7.920;2023-03-14T07:19:02;6.70;;;2.60;;
29662;SDS011;16578;53.266;7.920;2023-03-14T07:21:28;7.97;;;2.63;;
29662;SDS011;16578;53.266;7.920;2023-03-14T07:23:54;4.28;;;2.22;;
29662;SDS011;16578;53.266;7.920;2023-03-14T07:26:20;6.10;;;2.55;;
29662;SDS011;16578;53.266;7.920;2023-03-14T07:28:46;6.80;;;2.10;;
29662;SDS011;16578;53.266;7.920;2023-03-14T07:31:11;8.25;;;2.50;;
29662;SDS011;16578;53.266;7.920;2023-03-14T07:33:37;8.43;;;2.50;;
29662;SDS011;16578;53.266;7.920;2023-03-14T07:36:03;11.00;;;3.03;;
29662;SDS011;16578;53.266;7.920;2023-03-14T07:38:29;8.25;;;2.92;;
29662;SDS011;16578;53.266;7.920;2023-03-14T07:41:02;5.20;;;2.13;;
29662;SDS011;16578;53.266;7.920;2023-03-14T07:43:29;6.20;;;2.75;;
29662;SDS011;16578;53.266;7.920;2023-03-14T07:45:55;4.35;;;1.90;;
29662;SDS011;16578;53.266;7.920;2023-03-14T07:48:20;5.35;;;2.15;;
29662;SDS011;16578;53.266;7.920;2023-03-14T07:50:53;6.10;;;2.17;;
29662;SDS011;16578;53.266;7.920;2023-03-14T07:53:20;3.65;;;1.90;;
29662;SDS011;16578;53.266;7.920;2023-03-14T07:55:46;4.97;;;2.17;;
29662;SDS011;16578;53.266;7.920;2023-03-14T07:58:12;6.25;;;2.28;;
29662;SDS011;16578;53.266;7.920;2023-03-14T08:00:38;7.47;;;2.30;;
29662;SDS011;16578;53.266;7.920;2023-03-14T08:03:04;5.60;;;1.98;;
29662;SDS011;16578;53.266;7.920;2023-03-14T08:05:30;4.18;;;1.67;;
29662;SDS011;16578;53.266;7.920;2023-03-14T08:07:55;4.05;;;1.40;;
29662;SDS011;16578;53.266;7.920;2023-03-14T08:10:21;7.03;;;1.58;;
29662;SDS011;16578;53.266;7.920;2023-03-14T08:12:49;4.53;;;1.15;;
29662;SDS011;16578;53.266;7.920;2023-03-14T08:15:16;4.03;;;1.38;;
29662;SDS011;16578;53.266;7.920;2023-03-14T08:17:41;2.75;;;1.13;;
29662;SDS011;16578;53.266;7.920;2023-03-14T08:20:07;6.07;;;1.88;;
29662;SDS011;16578;53.266;7.920;2023-03-14T08:25:01;3.30;;;0.82;;
29662;SDS011;16578;53.266;7.920;2023-03-14T08:27:26;3.83;;;0.90;;
29662;SDS011;16578;53.266;7.920;2023-03-14T08:29:52;1.48;;;0.80;;
29662;SDS011;16578;53.266;7.920;2023-03-14T08:32:17;3.10;;;1.23;;
29662;SDS011;16578;53.266;7.920;2023-03-14T08:34:45;2.60;;;0.90;;
29662;SDS011;16578;53.266;7.920;2023-03-14T08:37:11;2.13;;;0.60;;
29662;SDS011;16578;53.266;7.920;2023-03-14T08:39:37;1.25;;;0.70;;
29662;SDS011;16578;53.266;7.920;2023-03-14T08:42:02;3.35;;;1.45;;
29662;SDS011;16578;53.266;7.920;2023-03-14T08:44:28;2.58;;;1.70;;
29662;SDS011;16578;53.266;7.920;2023-03-14T08:46:59;5.70;;;2.97;;
29662;SDS011;16578;53.266;7.920;2023-03-14T08:49:24;6.53;;;4.00;;
29662;SDS011;16578;53.266;7.920;2023-03-14T08:51:50;6.07;;;4.00;;
29662;SDS011;16578;53.266;7.920;2023-03-14T08:54:15;4.10;;;2.35;;
29662;SDS011;16578;53.266;7.920;2023-03-14T08:56:44;1.90;;;1.30;;
29662;SDS011;16578;53.266;7.920;2023-03-14T08:59:09;1.10;;;1.00;;
29662;SDS011;16578;53.266;7.920;2023-03-14T09:01:36;0.60;;;0.60;;
29662;SDS011;16578;53.266;7.920;2023-03-14T09:04:01;0.75;;;0.52;;
29662;SDS011;16578;53.266;7.920;2023-03-14T09:06:27;0.80;;;0.40;;
29662;SDS011;16578;53.266;7.920;2023-03-14T09:08:53;1.00;;;0.68;;
29662;SDS011;16578;53.266;7.920;2023-03-14T09:11:18;0.50;;;0.40;;
29662;SDS011;16578;53.266;7.920;2023-03-14T09:13:44;0.90;;;0.60;;
29662;SDS011;16578;53.266;7.920;2023-03-14T09:16:09;0.30;;;0.30;;
29662;SDS011;16578;53.266;7.920;2023-03-14T09:18:35;1.27;;;0.50;;
29662;SDS011;16578;53.266;7.920;2023-03-14T09:21:01;0.50;;;0.50;;
29662;SDS011;16578;53.266;7.920;2023-03-14T09:23:27;0.50;;;0.50;;
29662;SDS011;16578;53.266;7.920;2023-03-14T09:25:59;0.65;;;0.30;;
29662;SDS011;16578;53.266;7.920;2023-03-14T09:28:25;1.20;;;0.73;;
29662;SDS011;16578;53.266;7.920;2023-03-14T09:30:52;2.60;;;0.75;;
29662;SDS011;16578;53.266;7.920;2023-03-14T09:33:19;0.45;;;0.45;;
29662;SDS011;16578;53.266;7.920;2023-03-14T09:35:45;1.65;;;0.70;;
29662;SDS011;16578;53.266;7.920;2023-03-14T09:38:10;5.43;;;0.63;;
29662;SDS011;16578;53.266;7.920;2023-03-14T09:40:40;2.17;;;0.80;;
29662;SDS011;16578;53.266;7.920;2023-03-14T09:43:08;0.82;;;0.40;;
29662;SDS011;16578;53.266;7.920;2023-03-14T09:45:37;2.28;;;0.85;;
29662;SDS011;16578;53.266;7.920;2023-03-14T09:48:05;2.38;;;0.60;;
29662;SDS011;16578;53.266;7.920;2023-03-14T09:50:42;1.40;;;0.80;;
29662;SDS011;16578;53.266;7.920;2023-03-14T09:53:13;3.28;;;1.08;;
29662;SDS011;16578;53.266;7.920;2023-03-14T09:55:44;1.90;;;0.60;;
29662;SDS011;16578;53.266;7.920;2023-03-14T09:58:13;3.88;;;0.80;;
29662;SDS011;16578;53.266;7.920;2023-03-14T10:00:41;3.65;;;0.85;;
29662;SDS011;16578;53.266;7.920;2023-03-14T10:05:47;4.85;;;1.15;;
29662;SDS011;16578;53.266;7.920;2023-03-14T10:08:13;6.40;;;1.33;;
29662;SDS011;16578;53.266;7.920;2023-03-14T10:10:39;7.65;;;1.08;;
29662;SDS011;16578;53.266;7.920;2023-03-14T10:16:11;10.98;;;1.75;;
29662;SDS011;16578;53.266;7.920;2023-03-14T10:18:38;9.63;;;2.17;;
29662;SDS011;16578;53.266;7.920;2023-03-14T10:21:28;4.85;;;1.23;;
29662;SDS011;16578;53.266;7.920;2023-03-14T10:24:07;14.75;;;2.33;;
29662;SDS011;16578;53.266;7.920;2023-03-14T10:26:53;10.82;;;2.05;;
29662;SDS011;16578;53.266;7.920;2023-03-14T10:29:23;11.70;;;1.70;;
29662;SDS011;16578;53.266;7.920;2023-03-14T10:31:50;6.82;;;1.60;;
29662;SDS011;16578;53.266;7.920;2023-03-14T10:34:27;9.80;;;1.75;;
29662;SDS011;16578;53.266;7.920;2023-03-14T10:36:54;11.25;;;2.55;;
29662;SDS011;16578;53.266;7.920;2023-03-14T10:39:30;9.02;;;2.45;;
29662;SDS011;16578;53.266;7.920;2023-03-14T10:44:58;9.90;;;2.50;;
29662;SDS011;16578;53.266;7.920;2023-03-14T10:47:27;13.88;;;2.75;;
29662;SDS011;16578;53.266;7.920;2023-03-14T10:49:53;14.18;;;3.65;;
29662;SDS011;16578;53.266;7.920;2023-03-14T10:54:55;8.77;;;2.20;;
29662;SDS011;16578;53.266;7.920;2023-03-14T10:57:23;14.05;;;2.50;;
29662;SDS011;16578;53.266;7.920;2023-03-14T10:59:50;11.38;;;2.40;;
29662;SDS011;16578;53.266;7.920;2023-03-14T11:02:21;11.82;;;2.70;;
29662;SDS011;16578;53.266;7.920;2023-03-14T11:07:42;10.93;;;2.63;;
29662;SDS011;16578;53.266;7.920;2023-03-14T11:10:24;14.30;;;2.85;;
29662;SDS011;16578;53.266;7.920;2023-03-14T11:13:16;18.83;;;3.83;;
29662;SDS011;16578;53.266;7.920;2023-03-14T11:16:14;15.93;;;3.08;;
29662;SDS011;16578;53.266;7.920;2023-03-14T11:21:55;15.27;;;3.20;;
29662;SDS011;16578;53.266;7.920;2023-03-14T11:24:31;20.30;;;4.05;;
29662;SDS011;16578;53.266;7.920;2023-03-14T11:35:03;11.30;;;2.95;;
29662;SDS011;16578;53.266;7.920;2023-03-14T11:37:34;12.93;;;2.78;;
29662;SDS011;16578;53.266;7.920;2023-03-14T11:40:13;15.52;;;2.35;;
29662;SDS011;16578;53.266;7.920;2023-03-14T11:45:41;15.85;;;3.38;;
29662;SDS011;16578;53.266;7.920;2023-03-14T11:51:02;12.20;;;3.60;;
29662;SDS011;16578;53.266;7.920;2023-03-14T11:53:39;10.60;;;3.13;;
29662;SDS011;16578;53.266;7.920;2023-03-14T11:56:34;11.50;;;2.53;;
29662;SDS011;16578;53.266;7.920;2023-03-14T11:59:27;10.27;;;3.17;;
29662;SDS011;16578;53.266;7.920;2023-03-14T12:02:03;9.38;;;2.45;;
29662;SDS011;16578;53.266;7.920;2023-03-14T12:04:39;6.45;;;2.08;;
29662;SDS011;16578;53.266;7.920;2023-03-14T12:07:17;11.98;;;3.00;;
29662;SDS011;16578;53.266;7.920;2023-03-14T12:09:49;5.25;;;1.90;;
29662;SDS011;16578;53.266;7.920;2023-03-14T12:12:20;5.60;;;1.90;;
29662;SDS011;16578;53.266;7.920;2023-03-14T12:14:57;7.40;;;2.15;;
29662;SDS011;16578;53.266;7.920;2023-03-14T12:17:25;6.05;;;2.15;;
29662;SDS011;16578;53.266;7.920;2023-03-14T12:22:50;10.55;;;2.45;;
29662;SDS011;16578;53.266;7.920;2023-03-14T12:25:28;11.15;;;2.55;;
29662;SDS011;16578;53.266;7.920;2023-03-14T12:30:30;6.43;;;1.77;;
29662;SDS011;16578;53.266;7.920;2023-03-14T12:38:05;4.55;;;1.90;;
29662;SDS011;16578;53.266;7.920;2023-03-14T12:40:39;8.43;;;1.95;;
29662;SDS011;16578;53.266;7.920;2023-03-14T12:43:35;5.43;;;1.42;;
29662;SDS011;16578;53.266;7.920;2023-03-14T12:48:44;7.40;;;1.55;;
29662;SDS011;16578;53.266;7.920;2023-03-14T12:51:12;10.05;;;1.88;;
29662;SDS011;16578;53.266;7.920;2023-03-14T12:56:16;11.18;;;2.10;;
29662;SDS011;16578;53.266;7.920;2023-03-14T12:58:56;11.95;;;2.33;;
29662;SDS011;16578;53.266;7.920;2023-03-14T13:01:45;8.43;;;1.90;;
29662;SDS011;16578;53.266;7.920;2023-03-14T13:07:11;6.05;;;1.80;;
29662;SDS011;16578;53.266;7.920;2023-03-14T13:09:52;9.95;;;2.15;;
29662;SDS011;16578;53.266;7.920;2023-03-14T13:12:34;13.07;;;2.67;;
29662;SDS011;16578;53.266;7.920;2023-03-14T13:15:14;13.65;;;2.72;;
29662;SDS011;16578;53.266;7.920;2023-03-14T13:17:48;7.30;;;1.88;;
29662;SDS011;16578;53.266;7.920;2023-03-14T13:20:21;9.02;;;1.83;;
29662;SDS011;16578;53.266;7.920;2023-03-14T13:23:20;8.52;;;2.20;;
29662;SDS011;16578;53.266;7.920;2023-03-14T13:25:48;8.60;;;1.70;;
29662;SDS011;16578;53.266;7.920;2023-03-14T13:28:14;5.90;;;1.45;;
29662;SDS011;16578;53.266;7.920;2023-03-14T13:30:41;4.65;;;1.38;;
29662;SDS011;16578;53.266;7.920;2023-03-14T13:33:13;3.20;;;1.30;;
29662;SDS011;16578;53.266;7.920;2023-03-14T13:35:48;5.93;;;1.40;;
29662;SDS011;16578;53.266;7.920;2023-03-14T13:38:20;8.82;;;1.67;;
29662;SDS011;16578;53.266;7.920;2023-03-14T13:43:16;7.55;;;2.22;;
29662;SDS011;16578;53.266;7.920;2023-03-14T13:46:03;6.43;;;2.15;;
29662;SDS011;16578;53.266;7.920;2023-03-14T13:48:30;10.73;;;2.13;;
29662;SDS011;16578;53.266;7.920;2023-03-14T13:51:03;8.93;;;1.88;;
29662;SDS011;16578;53.266;7.920;2023-03-14T13:53:31;7.03;;;1.70;;
29662;SDS011;16578;53.266;7.920;2023-03-14T13:56:00;6.40;;;1.90;;
29662;SDS011;16578;53.266;7.920;2023-03-14T13:58:29;8.70;;;2.25;;
29662;SDS011;16578;53.266;7.920;2023-03-14T14:01:06;8.13;;;2.08;;
29662;SDS011;16578;53.266;7.920;2023-03-14T14:03:39;10.50;;;1.50;;
29662;SDS011;16578;53.266;7.920;2023-03-14T14:06:08;7.13;;;2.08;;
29662;SDS011;16578;53.266;7.920;2023-03-14T14:08:42;8.32;;;1.92;;
29662;SDS011;16578;53.266;7.920;2023-03-14T14:11:08;6.13;;;1.77;;
29662;SDS011;16578;53.266;7.920;2023-03-14T14:13:51;7.80;;;1.77;;
29662;SDS011;16578;53.266;7.920;2023-03-14T14:16:17;3.72;;;1.48;;
29662;SDS011;16578;53.266;7.920;2023-03-14T14:18:47;4.50;;;1.30;;
29662;SDS011;16578;53.266;7.920;2023-03-14T14:21:13;7.53;;;1.85;;
29662;SDS011;16578;53.266;7.920;2023-03-14T14:23:39;10.07;;;2.28;;
29662;SDS011;16578;53.266;7.920;2023-03-14T14:26:05;8.48;;;2.00;;
29662;SDS011;16578;53.266;7.920;2023-03-14T14:28:32;4.03;;;1.30;;
29662;SDS011;16578;53.266;7.920;2023-03-14T14:33:41;12.10;;;2.17;;
29662;SDS011;16578;53.266;7.920;2023-03-14T14:36:15;5.28;;;1.25;;
29662;SDS011;16578;53.266;7.920;2023-03-14T14:38:50;7.55;;;2.63;;
29662;SDS011;16578;53.266;7.920;2023-03-14T14:41:23;5.55;;;1.83;;
29662;SDS011;16578;53.266;7.920;2023-03-14T14:43:52;9.90;;;1.95;;
29662;SDS011;16578;53.266;7.920;2023-03-14T14:46:18;9.48;;;2.08;;
29662;SDS011;16578;53.266;7.920;2023-03-14T14:48:45;8.18;;;1.70;;
29662;SDS011;16578;53.266;7.920;2023-03-14T14:51:22;4.85;;;1.50;;
29662;SDS011;16578;53.266;7.920;2023-03-14T14:54:03;4.35;;;1.30;;
29662;SDS011;16578;53.266;7.920;2023-03-14T14:56:35;5.70;;;1.77;;
29662;SDS011;16578;53.266;7.920;2023-03-14T14:59:02;7.13;;;1.92;;
29662;SDS011;16578;53.266;7.920;2023-03-14T15:01:37;4.18;;;1.80;;
29662;SDS011;16578;53.266;7.920;2023-03-14T15:04:11;6.20;;;2.10;;
29662;SDS011;16578;53.266;7.920;2023-03-14T15:06:38;7.05;;;1.98;;
29662;SDS011;16578;53.266;7.920;2023-03-14T15:09:08;4.60;;;1.30;;
29662;SDS011;16578;53.266;7.920;2023-03-14T15:11:37;4.30;;;1.20;;
29662;SDS011;16578;53.266;7.920;2023-03-14T15:14:03;7.20;;;1.83;;
29662;SDS011;16578;53.266;7.920;2023-03-14T15:16:29;6.63;;;1.30;;
29662;SDS011;16578;53.266;7.920;2023-03-14T15:18:57;6.25;;;1.65;;
29662;SDS011;16578;53.266;7.920;2023-03-14T15:21:25;6.07;;;1.70;;
29662;SDS011;16578;53.266;7.920;2023-03-14T15:23:52;8.05;;;2.03;;
29662;SDS011;16578;53.266;7.920;2023-03-14T15:26:18;9.05;;;1.73;;
29662;SDS011;16578;53.266;7.920;2023-03-14T15:28:46;6.30;;;1.35;;
29662;SDS011;16578;53.266;7.920;2023-03-14T15:31:12;11.80;;;1.67;;
29662;SDS011;16578;53.266;7.920;2023-03-14T15:33:39;14.90;;;2.40;;
29662;SDS011;16578;53.266;7.920;2023-03-14T15:36:06;6.22;;;1.63;;
29662;SDS011;16578;53.266;7.920;2023-03-14T15:38:41;6.35;;;1.58;;
29662;SDS011;16578;53.266;7.920;2023-03-14T15:41:07;9.05;;;2.17;;
29662;SDS011;16578;53.266;7.920;2023-03-14T15:43:34;6.25;;;1.80;;
29662;SDS011;16578;53.266;7.920;2023-03-14T15:45:59;6.47;;;1.90;;
29662;SDS011;16578;53.266;7.920;2023-03-14T15:48:25;8.73;;;1.98;;
29662;SDS011;16578;53.266;7.920;2023-03-14T15:50:50;8.80;;;1.85;;
29662;SDS011;16578;53.266;7.920;2023-03-14T15:53:16;7.65;;;2.00;;
29662;SDS011;16578;53.266;7.920;2023-03-14T15:55:42;7.43;;;2.35;;
29662;SDS011;16578;53.266;7.920;2023-03-14T15:58:09;5.38;;;1.73;;
29662;SDS011;16578;53.266;7.920;2023-03-14T16:00:41;8.82;;;2.15;;